Nyesville, Pennsylvania
Current Conditions -  °F | °C
As of 7:53 AM on Saturday 20 Dec 2014 (Local Time) from KHGR Reporting Station
Clear Clear  
Wind Chill: 25°   Ceiling: Unl
Heat Index: 25°   Visibility: 10mi
Dew Point: 18°   Wind: 3mph
Humidity: 75%   Direction: 60°ENE
Pressure: 30.27"   Gusts: NA
Location:  39.9438°N, 77.6827°W
Report Text: KHGR 201253Z 06003KT 10SM CLR M04/M08 A3027 RMK AO2 SLP271 T10391078
Loading
Personal Weather Stations






























Interactive Weather Map New forecast layout! Learn more

10-Day Weather Forecast

Advertisements
Track Severe Weather on mobile